Time;durP1;ratioP1;P1;durP2;ratioP2;P2;SDS_P1;SDS_P2;PMS_P1;PMS_P2;Temp;Humidity;BMP_temperature;BMP_pressure;BME280_temperature;BME280_humidity;BME280_pressure;Samples;Min_cycle;Max_cycle;Signal;HPM_P1;HPM_P2
2024/04/25 00:00:18;;;;;;;4.00;0.98;;;;;;;4.33;41.00;91513.16;4966372;29;20029;-84
2024/04/25 00:02:44;;;;;;;1.67;1.02;;;;;;;4.25;41.50;91516.31;4965275;29;20009;-86
2024/04/25 00:05:09;;;;;;;1.52;0.90;;;;;;;4.20;41.40;91502.66;4964054;28;20021;-85
2024/04/25 00:07:35;;;;;;;1.20;0.90;;;;;;;4.26;41.55;91507.53;4964096;29;20021;-85
2024/04/25 00:10:00;;;;;;;1.10;0.73;;;;;;;4.16;41.71;91507.59;4985406;28;20123;-85
2024/04/25 00:12:26;;;;;;;1.45;1.00;;;;;;;4.13;41.43;91505.53;4950031;29;20013;-86
2024/04/25 00:14:51;;;;;;;1.00;0.90;;;;;;;4.14;41.37;91500.09;4964488;29;20060;-86
2024/04/25 00:17:17;;;;;;;0.60;0.60;;;;;;;4.11;41.74;91499.84;4937173;29;20009;-84
2024/04/25 00:19:43;;;;;;;0.80;0.73;;;;;;;4.12;41.57;91497.00;4967067;28;20017;-83
2024/04/25 00:22:08;;;;;;;0.90;0.80;;;;;;;4.12;41.83;91506.56;4937602;29;20863;-83
2024/04/25 00:24:34;;;;;;;2.78;0.98;;;;;;;4.07;41.82;91506.63;4938653;29;20013;-85
2024/04/25 00:26:59;;;;;;;0.93;0.73;;;;;;;4.04;41.86;91500.16;4965100;28;20006;-85
2024/04/25 00:29:25;;;;;;;1.38;0.85;;;;;;;4.02;42.18;91501.47;4966035;28;20024;-86
2024/04/25 00:31:50;;;;;;;1.05;0.98;;;;;;;4.00;42.05;91495.78;4971618;28;20013;-85
2024/04/25 00:34:16;;;;;;;0.73;0.70;;;;;;;4.05;42.00;91501.69;4965473;28;20018;-83
2024/04/25 00:36:42;;;;;;;1.00;0.90;;;;;;;4.04;41.57;91500.16;4964941;29;20009;-85
2024/04/25 00:39:07;;;;;;;0.80;0.75;;;;;;;4.05;41.50;91499.09;4965987;28;20056;-83
2024/04/25 00:41:33;;;;;;;2.67;0.90;;;;;;;4.02;41.57;91496.31;4968397;28;20013;-85
2024/04/25 00:43:59;;;;;;;1.00;0.90;;;;;;;3.96;41.50;91498.94;4938914;29;20009;-86
2024/04/25 00:46:25;;;;;;;1.00;0.90;;;;;;;3.98;41.17;91501.22;4949832;28;20005;-85
2024/04/25 00:48:52;;;;;;;1.08;0.90;;;;;;;3.97;41.41;91495.28;4963552;29;20332;-85
2024/04/25 00:51:20;;;;;;;0.90;0.80;;;;;;;3.99;40.77;91496.84;4962813;28;20045;-84
2024/04/25 00:53:46;;;;;;;0.75;0.70;;;;;;;3.95;40.82;91497.38;4964614;28;20021;-85
2024/04/25 00:56:13;;;;;;;1.00;0.82;;;;;;;3.95;41.23;91492.19;4966466;28;20476;-84
2024/04/25 00:58:40;;;;;;;1.20;0.90;;;;;;;3.94;40.91;91501.00;4963756;28;20017;-86
2024/04/25 01:01:08;;;;;;;0.98;0.80;;;;;;;3.91;40.62;91495.59;4955249;28;20064;-85
2024/04/25 01:03:35;;;;;;;1.45;1.00;;;;;;;3.94;39.89;91493.25;4956739;28;20010;-86
2024/04/25 01:06:03;;;;;;;1.27;0.90;;;;;;;3.90;40.14;91491.47;4954724;29;20478;-85
2024/04/25 01:08:28;;;;;;;0.80;0.80;;;;;;;3.93;39.81;91491.69;4963201;29;20451;-84
2024/04/25 01:10:54;;;;;;;1.23;0.90;;;;;;;3.88;40.31;91502.09;4964347;29;20013;-84
2024/04/25 01:13:20;;;;;;;0.90;0.82;;;;;;;3.91;40.13;91496.34;4939795;28;20128;-85
2024/04/25 01:15:45;;;;;;;0.88;0.88;;;;;;;3.84;40.37;91490.72;4938773;29;20021;-84
2024/04/25 01:18:14;;;;;;;1.13;0.80;;;;;;;3.88;40.80;91504.66;4937871;29;20012;-83
2024/04/25 01:20:40;;;;;;;0.80;0.80;;;;;;;3.93;40.77;91503.88;4937574;29;20017;-83
2024/04/25 01:23:10;;;;;;;0.75;0.75;;;;;;;3.96;40.63;91493.75;4930873;29;20529;-83
2024/04/25 01:25:37;;;;;;;1.42;0.85;;;;;;;3.94;40.35;91497.63;4974624;28;20060;-85
2024/04/25 01:28:05;;;;;;;1.27;1.00;;;;;;;3.90;40.84;91499.22;4964358;29;20006;-85
2024/04/25 01:30:32;;;;;;;2.25;0.80;;;;;;;3.84;40.79;91495.13;4964957;29;20009;-84
2024/04/25 01:32:59;;;;;;;1.05;0.90;;;;;;;3.85;40.31;91507.00;4966825;28;20359;-81
2024/04/25 01:35:29;;;;;;;0.77;0.77;;;;;;;3.77;40.26;91495.41;4974654;28;20373;-83
2024/04/25 01:37:59;;;;;;;1.20;0.90;;;;;;;3.76;40.49;91499.06;4962956;29;20013;-83
2024/04/25 01:40:25;;;;;;;1.00;0.90;;;;;;;3.76;40.23;91504.25;4937990;29;20009;-84
2024/04/25 01:42:51;;;;;;;0.95;0.85;;;;;;;3.75;40.32;91510.44;4936592;29;20016;-85
2024/04/25 01:45:17;;;;;;;0.82;0.80;;;;;;;3.71;40.38;91496.47;4978999;28;20001;-85
2024/04/25 01:47:42;;;;;;;0.90;0.75;;;;;;;3.68;40.62;91500.38;4924917;29;20064;-84
2024/04/25 01:50:08;;;;;;;1.58;1.00;;;;;;;3.72;40.79;91500.63;4937232;29;20037;-81
2024/04/25 01:52:33;;;;;;;0.88;0.77;;;;;;;3.67;40.93;91498.84;4964051;28;20013;-84
2024/04/25 01:54:59;;;;;;;0.88;0.75;;;;;;;3.65;40.78;91498.34;4973669;28;20013;-86
2024/04/25 01:57:25;;;;;;;4.22;0.80;;;;;;;3.60;40.98;91505.34;4962901;29;20060;-85
2024/04/25 01:59:50;;;;;;;1.50;0.90;;;;;;;3.49;40.60;91500.22;4962735;28;20017;-85
2024/04/25 02:02:16;;;;;;;2.53;0.80;;;;;;;3.49;41.07;91507.19;4962542;29;20005;-85
2024/04/25 02:04:41;;;;;;;0.88;0.85;;;;;;;3.45;41.64;91508.78;4962009;28;20014;-83
2024/04/25 02:07:10;;;;;;;0.70;0.70;;;;;;;3.40;42.80;91507.00;4917919;29;20010;-85
2024/04/25 02:09:36;;;;;;;0.98;0.80;;;;;;;3.32;42.00;91503.16;4926749;29;20013;-82
2024/04/25 02:12:02;;;;;;;1.08;0.80;;;;;;;3.30;41.51;91504.44;4936195;28;20013;-82
2024/04/25 02:14:28;;;;;;;1.00;0.90;;;;;;;3.27;41.47;91502.41;4936409;28;20005;-83
2024/04/25 02:16:53;;;;;;;0.82;0.82;;;;;;;3.22;41.42;91494.66;4965579;28;20021;-84
2024/04/25 02:19:19;;;;;;;1.10;1.00;;;;;;;3.25;41.43;91505.25;4933974;29;20087;-84
2024/04/25 02:27:16;;;;;;;0.88;0.80;;;;;;;3.24;42.07;91505.50;4963136;28;20057;-85
2024/04/25 02:29:42;;;;;;;0.60;0.60;;;;;;;3.19;42.10;91503.72;4936504;29;20010;-86
2024/04/25 02:32:08;;;;;;;0.95;0.80;;;;;;;3.16;41.90;91498.31;4961514;29;20495;-84
2024/04/25 02:34:33;;;;;;;1.35;0.80;;;;;;;3.14;42.24;91498.56;4940922;28;20004;-83
2024/04/25 02:36:59;;;;;;;0.90;0.80;;;;;;;3.09;42.26;91499.34;4978864;28;20044;-85
2024/04/25 02:39:24;;;;;;;1.00;0.90;;;;;;;3.09;41.85;91496.00;4970301;28;20005;-85
2024/04/25 02:41:50;;;;;;;0.82;0.70;;;;;;;3.09;42.09;91503.75;4961597;29;20478;-84
2024/04/25 02:44:16;;;;;;;0.85;0.70;;;;;;;3.06;42.48;91491.34;4965057;28;20024;-84
2024/04/25 02:46:41;;;;;;;0.80;0.73;;;;;;;3.02;42.59;91491.13;4964183;28;20012;-84
2024/04/25 02:49:07;;;;;;;1.27;0.82;;;;;;;3.00;42.65;91497.59;4930135;29;20021;-83
2024/04/25 02:51:33;;;;;;;0.80;0.80;;;;;;;2.94;42.74;91483.88;4955706;29;20041;-82
2024/04/25 02:53:59;;;;;;;1.38;0.82;;;;;;;2.96;42.96;91486.22;4935010;29;20013;-84
2024/04/25 02:56:25;;;;;;;1.13;0.90;;;;;;;2.90;42.95;91483.66;4912505;29;20099;-85
2024/04/25 02:58:50;;;;;;;0.98;0.80;;;;;;;2.92;43.22;91486.72;4934785;29;20449;-84
2024/04/25 03:01:16;;;;;;;1.63;1.10;;;;;;;2.93;43.09;91484.94;4936549;29;20009;-84
2024/04/25 03:03:41;;;;;;;1.23;1.00;;;;;;;2.90;42.66;91480.28;4961573;28;20013;-83
2024/04/25 03:06:07;;;;;;;0.77;0.70;;;;;;;2.96;42.27;91481.81;4962036;29;20354;-84
2024/04/25 03:08:33;;;;;;;0.80;0.70;;;;;;;2.89;42.71;91473.56;4935874;29;20020;-84
2024/04/25 03:11:05;;;;;;;1.05;0.90;;;;;;;2.91;42.31;91484.41;4937239;29;20009;-85
2024/04/25 03:13:31;;;;;;;0.80;0.80;;;;;;;2.89;42.42;91476.16;4956396;28;20025;-85
2024/04/25 03:16:00;;;;;;;1.25;0.90;;;;;;;2.92;43.00;91485.97;4925743;29;20021;-84
2024/04/25 03:18:26;;;;;;;1.08;0.88;;;;;;;2.88;42.74;91485.72;4936132;29;20033;-85
2024/04/25 03:20:51;;;;;;;1.02;0.80;;;;;;;2.92;42.36;91485.97;4966039;28;20009;-85
2024/04/25 03:23:17;;;;;;;2.75;0.90;;;;;;;2.95;42.25;91480.28;4936727;29;20068;-84
2024/04/25 03:25:43;;;;;;;0.88;0.70;;;;;;;2.90;42.27;91472.53;4965692;28;20470;-85
2024/04/25 03:28:08;;;;;;;0.80;0.80;;;;;;;2.97;42.38;91488.53;4940900;28;20009;-82
2024/04/25 03:30:34;;;;;;;0.80;0.80;;;;;;;2.95;42.28;91488.03;4955703;28;20416;-84
2024/04/25 03:33:00;;;;;;;0.95;0.75;;;;;;;2.94;41.99;91483.88;4969489;28;20513;-84
2024/04/25 03:35:25;;;;;;;1.27;0.80;;;;;;;2.96;41.90;91486.22;4940379;28;20016;-83
2024/04/25 03:37:51;;;;;;;0.75;0.75;;;;;;;2.97;41.86;91483.34;4939344;29;20020;-83
2024/04/25 03:40:17;;;;;;;0.77;0.73;;;;;;;2.98;41.72;91490.09;4961370;29;20092;-84
2024/04/25 03:42:42;;;;;;;0.93;0.82;;;;;;;2.94;41.90;91496.81;4963480;29;20029;-84
2024/04/25 03:45:08;;;;;;;0.75;0.75;;;;;;;2.89;41.83;91495.03;4965967;28;20064;-85
2024/04/25 03:47:33;;;;;;;1.13;0.88;;;;;;;2.94;41.00;91489.06;4939179;29;20024;-84
2024/04/25 03:49:59;;;;;;;2.08;1.10;;;;;;;2.95;41.94;91495.78;4965592;29;20009;-84
2024/04/25 03:52:25;;;;;;;0.80;0.80;;;;;;;2.95;41.97;91493.22;4965413;28;20013;-85
2024/04/25 03:54:53;;;;;;;1.38;0.93;;;;;;;2.99;42.11;91490.84;4966067;28;20476;-83
2024/04/25 03:57:19;;;;;;;0.75;0.75;;;;;;;2.99;42.50;91501.97;4966281;28;20032;-84
2024/04/25 03:59:45;;;;;;;1.08;0.98;;;;;;;2.97;42.72;91498.84;4933891;29;20010;-84
2024/04/25 04:02:10;;;;;;;0.73;0.73;;;;;;;2.99;42.30;91501.97;4947985;29;20454;-85
2024/04/25 04:04:36;;;;;;;0.95;0.82;;;;;;;3.02;43.06;91501.44;4969895;28;20475;-85
2024/04/25 04:07:02;;;;;;;0.85;0.77;;;;;;;3.03;43.03;91499.63;4943136;29;20129;-83
2024/04/25 04:09:28;;;;;;;2.90;0.90;;;;;;;2.97;42.57;91498.84;4964873;28;20631;-85
2024/04/25 04:11:53;;;;;;;0.82;0.80;;;;;;;2.96;42.33;91507.66;4965106;28;20020;-83
2024/04/25 04:14:19;;;;;;;0.80;0.80;;;;;;;3.02;42.31;91511.78;4947793;28;20044;-85
2024/04/25 04:16:45;;;;;;;1.17;0.90;;;;;;;3.10;42.58;91507.88;4954178;28;20013;-84
2024/04/25 04:19:10;;;;;;;1.13;1.00;;;;;;;3.06;42.21;91506.84;4971058;28;20009;-84
2024/04/25 04:21:36;;;;;;;1.15;1.00;;;;;;;3.04;42.63;91511.50;4928703;29;20506;-85
2024/04/25 04:24:02;;;;;;;1.30;0.85;;;;;;;3.01;42.28;91505.06;4965632;28;20020;-85
2024/04/25 04:26:27;;;;;;;0.77;0.73;;;;;;;3.09;41.90;91509.69;4965271;28;20013;-85
2024/04/25 04:28:53;;;;;;;1.73;1.00;;;;;;;3.07;41.92;91509.19;4966014;28;20013;-85
2024/04/25 04:31:19;;;;;;;0.93;0.80;;;;;;;3.15;41.88;91510.44;4964283;28;20028;-84
2024/04/25 04:33:44;;;;;;;1.13;1.00;;;;;;;3.14;41.86;91511.50;4958284;28;20013;-84
2024/04/25 04:36:10;;;;;;;1.80;1.10;;;;;;;3.22;41.61;91510.16;4968001;28;20013;-84
2024/04/25 04:38:35;;;;;;;1.58;1.08;;;;;;;3.24;42.17;91503.72;4914199;29;20010;-84
2024/04/25 04:41:01;;;;;;;1.10;0.85;;;;;;;3.15;42.70;91505.28;4972743;28;20009;-80
2024/04/25 04:43:26;;;;;;;1.25;1.00;;;;;;;3.22;42.83;91505.00;4968197;28;20014;-83
2024/04/25 04:45:55;;;;;;;0.80;0.80;;;;;;;3.14;43.03;91506.31;4967501;28;20016;-83
2024/04/25 04:48:24;;;;;;;0.60;0.60;;;;;;;3.11;43.50;91504.28;4972209;28;20024;-84
2024/04/25 04:50:49;;;;;;;1.10;0.90;;;;;;;3.12;43.65;91505.81;4944805;28;20351;-84
2024/04/25 04:53:15;;;;;;;0.70;0.70;;;;;;;3.09;43.44;91509.69;4943619;28;20010;-84
2024/04/25 04:55:42;;;;;;;0.77;0.77;;;;;;;3.12;43.27;91506.56;4941526;28;20005;-83
2024/04/25 04:58:08;;;;;;;0.80;0.80;;;;;;;3.16;42.69;91508.66;4971420;28;20017;-81
2024/04/25 05:00:34;;;;;;;1.40;0.95;;;;;;;3.31;41.46;91508.56;4962278;28;20033;-83
2024/04/25 05:03:01;;;;;;;2.20;1.00;;;;;;;3.40;41.77;91506.22;4968266;28;20023;-84
2024/04/25 05:05:28;;;;;;;0.80;0.80;;;;;;;3.40;41.54;91501.84;4939615;28;20010;-83
2024/04/25 05:07:57;;;;;;;1.00;0.88;;;;;;;3.50;41.04;91506.94;4949426;28;20006;-83
2024/04/25 05:10:27;;;;;;;1.25;0.90;;;;;;;3.69;40.75;91501.94;4961349;28;20023;-83
2024/04/25 05:12:54;;;;;;;1.00;0.85;;;;;;;3.83;41.72;91514.28;4937862;28;20005;-83
2024/04/25 05:15:20;;;;;;;1.65;1.00;;;;;;;3.96;42.79;91504.09;4961908;28;20005;-83
2024/04/25 05:17:45;;;;;;;1.55;1.08;;;;;;;3.97;43.11;91516.00;4966670;28;20034;-83
2024/04/25 05:20:11;;;;;;;1.52;0.93;;;;;;;3.92;44.27;91508.28;4967974;28;20519;-82
2024/04/25 05:22:39;;;;;;;1.23;1.00;;;;;;;3.97;44.17;91521.19;4929363;28;20450;-82
2024/04/25 05:25:08;;;;;;;6.45;1.50;;;;;;;3.99;45.21;91513.16;4968443;28;20038;-82
2024/04/25 05:27:37;;;;;;;2.88;1.10;;;;;;;3.99;42.89;91502.03;4963747;28;20009;-86
2024/04/25 05:30:05;;;;;;;1.10;0.80;;;;;;;4.02;43.60;91517.03;4937307;29;20016;-85
2024/04/25 05:32:30;;;;;;;1.08;0.90;;;;;;;4.09;43.98;91518.25;4977242;28;20005;-85
2024/04/25 05:35:02;;;;;;;1.10;0.85;;;;;;;4.16;43.66;91528.31;4966900;28;20672;-86
2024/04/25 05:37:28;;;;;;;1.45;0.90;;;;;;;4.43;49.54;91520.06;4961180;28;20052;-85
2024/04/25 05:39:54;;;;;;;1.58;1.05;;;;;;;4.41;53.19;91524.75;4915381;28;20153;-85
2024/04/25 05:42:19;;;;;;;3.03;1.00;;;;;;;4.81;48.76;91525.47;4963146;29;20009;-88
2024/04/25 05:44:49;;;;;;;1.52;0.95;;;;;;;4.82;46.07;91518.44;4940041;29;20013;-83
2024/04/25 05:47:16;;;;;;;1.58;1.05;;;;;;;4.90;53.93;91530.81;4974441;28;20009;-85
2024/04/25 05:49:43;;;;;;;1.83;1.10;;;;;;;4.96;52.41;91529.75;4959058;28;20138;-85
2024/04/25 05:52:08;;;;;;;0.95;0.88;;;;;;;4.94;58.46;91531.81;4948183;29;20017;-85
2024/04/25 05:54:43;;;;;;;1.05;0.90;;;;;;;5.02;61.11;91536.41;4966688;29;20038;-84
2024/04/25 05:57:09;;;;;;;1.45;0.88;;;;;;;5.12;60.28;91533.72;4956749;29;20064;-83
2024/04/25 05:59:34;;;;;;;1.52;1.05;;;;;;;5.25;60.34;91536.72;4965322;29;20009;-84
2024/04/25 06:02:02;;;;;;;1.48;1.13;;;;;;;5.22;63.83;91549.19;4951794;29;20009;-83
2024/04/25 06:04:31;;;;;;;2.22;1.30;;;;;;;5.21;68.25;91547.63;4914432;29;20162;-85
2024/04/25 06:06:57;;;;;;;5.97;1.05;;;;;;;5.27;65.81;91547.56;4966425;29;20320;-84
2024/04/25 06:09:23;;;;;;;1.85;1.17;;;;;;;5.28;62.97;91552.50;4951936;28;20028;-84
2024/04/25 06:11:50;;;;;;;1.17;0.90;;;;;;;5.76;59.57;91546.50;4904073;29;20010;-85
2024/04/25 06:14:15;;;;;;;1.67;1.23;;;;;;;7.14;56.94;91541.06;4961312;28;20019;-84
2024/04/25 06:16:48;;;;;;;1.83;1.10;;;;;;;8.19;50.77;91546.31;4964517;28;20005;-85
2024/04/25 06:19:14;;;;;;;0.80;0.80;;;;;;;9.21;44.45;91540.59;4963062;29;20005;-86
2024/04/25 06:21:40;;;;;;;1.80;1.10;;;;;;;9.64;43.11;91539.25;4963882;28;20050;-85
2024/04/25 06:24:07;;;;;;;2.78;1.50;;;;;;;10.25;40.10;91540.13;4936541;29;20013;-85
2024/04/25 06:26:34;;;;;;;2.00;1.20;;;;;;;10.29;41.42;91545.53;4963784;28;20347;-85
2024/04/25 06:28:59;;;;;;;2.60;1.40;;;;;;;10.63;39.32;91542.94;4963015;29;20013;-85
2024/04/25 06:31:28;;;;;;;3.60;1.58;;;;;;;10.84;39.05;91539.69;4921992;28;20042;-85
2024/04/25 06:33:59;;;;;;;2.65;1.38;;;;;;;11.43;38.33;91547.72;4910255;29;20013;-86
2024/04/25 06:36:25;;;;;;;2.15;1.30;;;;;;;11.62;37.08;91549.22;4936703;29;20362;-86
2024/04/25 06:38:51;;;;;;;4.43;1.20;;;;;;;11.22;36.63;91546.88;4961278;28;20009;-84
2024/04/25 06:41:16;;;;;;;0.75;0.70;;;;;;;12.12;35.25;91545.91;4959412;28;20050;-85
2024/04/25 06:43:42;;;;;;;2.15;1.40;;;;;;;12.21;34.04;91548.47;4956749;28;20009;-85
2024/04/25 06:46:08;;;;;;;0.93;0.80;;;;;;;12.03;35.11;91547.81;4933482;29;20005;-85
2024/04/25 06:48:33;;;;;;;1.38;1.00;;;;;;;11.30;37.44;91556.53;4909624;28;20009;-85
2024/04/25 06:51:02;;;;;;;5.93;1.30;;;;;;;10.56;38.30;91549.69;4956340;29;20024;-85
2024/04/25 06:53:28;;;;;;;3.60;1.20;;;;;;;10.28;37.05;91549.97;4928824;28;20041;-85
2024/04/25 06:55:54;;;;;;;2.35;1.10;;;;;;;9.45;42.63;91549.91;4924932;29;20315;-85
2024/04/25 06:58:20;;;;;;;3.95;1.23;;;;;;;9.00;43.72;91550.78;4944701;28;20037;-84
2024/04/25 07:00:46;;;;;;;1.80;1.10;;;;;;;8.87;43.74;91552.41;4913419;29;20009;-85
2024/04/25 07:03:17;;;;;;;2.60;1.50;;;;;;;8.91;42.27;91552.56;4933257;29;20051;-85
2024/04/25 07:05:42;;;;;;;2.10;1.00;;;;;;;8.84;44.48;91542.53;4938691;28;20017;-84
2024/04/25 07:08:08;;;;;;;1.65;1.02;;;;;;;8.74;45.92;91546.16;4907232;29;20080;-85
2024/04/25 07:10:33;;;;;;;2.17;1.17;;;;;;;8.49;45.50;91546.78;4963840;29;20072;-84
2024/04/25 07:13:01;;;;;;;2.47;1.40;;;;;;;8.08;48.20;91556.22;4964406;28;20010;-84
2024/04/25 07:15:26;;;;;;;2.50;1.48;;;;;;;7.78;54.92;91552.38;4950120;29;20013;-83
2024/04/25 07:17:55;;;;;;;3.75;1.60;;;;;;;7.37;59.28;91558.38;4961120;28;20024;-85
2024/04/25 07:20:21;;;;;;;4.10;1.80;;;;;;;7.24;60.41;91562.50;4966246;29;20009;-83
2024/04/25 07:22:47;;;;;;;1.92;1.25;;;;;;;7.41;59.23;91551.53;4934618;29;20079;-85
2024/04/25 07:25:14;;;;;;;3.97;1.75;;;;;;;7.47;57.89;91560.00;4956437;28;20020;-85
2024/04/25 07:27:41;;;;;;;2.30;1.38;;;;;;;7.49;56.69;91557.88;4960805;28;20012;-85
2024/04/25 07:30:12;;;;;;;4.82;2.17;;;;;;;7.42;58.68;91560.09;4932755;29;20022;-85
2024/04/25 07:32:41;;;;;;;4.20;2.38;;;;;;;7.23;58.86;91550.56;4950304;29;20001;-83
2024/04/25 07:35:07;;;;;;;4.20;1.80;;;;;;;7.41;57.91;91556.75;4912721;29;20094;-84
2024/04/25 07:37:35;;;;;;;3.88;2.15;;;;;;;7.28;56.95;91558.25;4964283;29;20005;-85
2024/04/25 07:40:01;;;;;;;6.22;2.42;;;;;;;7.21;53.24;91552.66;4939460;29;20014;-84
2024/04/25 07:42:27;;;;;;;2.40;1.30;;;;;;;7.23;53.78;91550.56;4940410;28;20064;-85
2024/04/25 07:44:57;;;;;;;2.72;1.52;;;;;;;7.30;53.16;91550.94;4966267;28;20002;-84
2024/04/25 07:47:23;;;;;;;2.83;1.48;;;;;;;7.40;55.09;91555.19;4967436;29;20511;-84
2024/04/25 07:49:52;;;;;;;6.90;1.65;;;;;;;7.44;54.25;91558.75;4951696;29;20041;-83
2024/04/25 07:52:18;;;;;;;3.13;1.70;;;;;;;7.27;56.93;91563.75;4965070;29;20091;-84
2024/04/25 07:54:47;;;;;;;5.18;2.40;;;;;;;7.55;60.16;91561.94;4965713;28;20132;-84
2024/04/25 07:57:12;;;;;;;4.13;2.08;;;;;;;7.62;56.85;91557.13;4965404;29;20054;-82
2024/04/25 07:59:45;;;;;;;4.50;2.05;;;;;;;7.66;57.68;91560.69;4967314;29;20013;-83
2024/04/25 08:02:11;;;;;;;3.33;1.73;;;;;;;7.65;56.66;91564.34;4940573;29;20080;-84
2024/04/25 08:04:43;;;;;;;6.43;2.17;;;;;;;7.59;58.28;91569.94;4941096;29;20005;-82
2024/04/25 08:07:09;;;;;;;3.97;2.25;;;;;;;7.36;60.60;91576.88;4940526;29;20041;-84
2024/04/25 08:09:34;;;;;;;6.15;2.35;;;;;;;7.17;57.63;91577.72;4939954;29;20013;-83
2024/04/25 08:12:00;;;;;;;3.75;2.10;;;;;;;7.11;60.11;91578.84;4915748;28;20024;-84
2024/04/25 08:14:28;;;;;;;3.78;1.80;;;;;;;7.36;57.41;91580.25;4979303;28;20478;-83
2024/04/25 08:16:54;;;;;;;4.90;2.40;;;;;;;7.16;58.85;91568.38;4966094;29;20009;-84
2024/04/25 08:19:19;;;;;;;5.22;2.28;;;;;;;7.78;55.33;91572.47;4916525;29;20028;-85
2024/04/25 08:21:46;;;;;;;4.25;2.60;;;;;;;7.76;63.17;91569.38;4942804;29;20009;-82
2024/04/25 08:24:15;;;;;;;4.90;2.58;;;;;;;7.68;64.39;91584.63;4953820;29;20010;-84
2024/04/25 08:26:40;;;;;;;9.15;2.22;;;;;;;7.82;62.90;91581.25;4938224;29;20422;-85
2024/04/25 08:29:09;;;;;;;2.75;1.75;;;;;;;8.38;56.33;91574.09;4912733;29;20024;-85
2024/04/25 08:31:34;;;;;;;4.90;2.35;;;;;;;8.72;58.30;91571.78;4939290;29;20068;-85
2024/04/25 08:34:04;;;;;;;6.40;3.20;;;;;;;8.55;61.95;91563.81;4968221;29;20009;-82
2024/04/25 08:36:30;;;;;;;5.57;2.55;;;;;;;8.49;58.12;91562.41;4966903;29;20005;-84
2024/04/25 08:38:56;;;;;;;4.35;2.45;;;;;;;8.45;62.28;91583.09;4941922;29;20024;-82
2024/04/25 08:41:22;;;;;;;6.03;2.72;;;;;;;8.32;63.85;91578.66;4934267;29;20350;-82
2024/04/25 08:44:02;;;;;;;6.75;2.55;;;;;;;8.15;63.32;91571.47;4961796;29;20013;-84
2024/04/25 08:46:31;;;;;;;5.20;3.03;;;;;;;8.05;61.44;91580.25;4966540;29;20347;-83
2024/04/25 08:49:17;;;;;;;7.80;3.33;;;;;;;8.33;66.90;91578.38;4969358;29;20136;-85
2024/04/25 08:51:45;;;;;;;4.82;2.58;;;;;;;8.59;63.20;91574.44;4968363;29;20464;-84
2024/04/25 08:54:17;;;;;;;5.82;3.40;;;;;;;8.76;68.05;91574.59;4941403;29;20009;-84
2024/04/25 08:56:43;;;;;;;7.05;3.38;;;;;;;8.87;68.14;91577.72;4942851;29;20017;-83
2024/04/25 08:59:08;;;;;;;7.63;4.40;;;;;;;8.85;68.33;91579.84;4968233;29;20009;-85
2024/04/25 09:01:38;;;;;;;5.82;3.28;;;;;;;8.51;66.94;91592.34;4966152;28;20650;-84
2024/04/25 09:04:19;;;;;;;6.03;2.88;;;;;;;8.64;70.22;91574.31;4966028;28;20024;-83
2024/04/25 09:06:45;;;;;;;5.40;3.35;;;;;;;8.57;69.12;91573.97;4939845;29;20091;-84
2024/04/25 09:09:12;;;;;;;6.88;3.95;;;;;;;8.55;69.25;91567.19;4967551;28;20004;-84
2024/04/25 09:11:38;;;;;;;7.35;3.85;;;;;;;8.42;78.21;91590.72;4968025;29;20440;-82
2024/04/25 09:14:09;;;;;;;10.13;3.92;;;;;;;8.31;73.26;91592.75;4954479;28;20004;-84
2024/04/25 09:16:38;;;;;;;6.32;3.55;;;;;;;8.45;72.19;91577.09;4990117;28;20017;-83
2024/04/25 09:19:04;;;;;;;6.25;3.78;;;;;;;8.65;73.77;91571.44;4964385;29;20360;-83
2024/04/25 09:21:29;;;;;;;7.00;3.72;;;;;;;8.83;72.64;91587.22;4966261;28;20020;-82
2024/04/25 09:24:02;;;;;;;4.55;2.75;;;;;;;8.68;67.27;91588.34;4938624;29;20059;-83
2024/04/25 09:26:30;;;;;;;6.07;3.65;;;;;;;8.14;75.50;91577.72;4963061;29;20013;-83
2024/04/25 09:29:09;;;;;;;6.78;3.78;;;;;;;7.99;72.96;91597.03;4966326;29;20016;-82
2024/04/25 09:31:37;;;;;;;8.35;4.05;;;;;;;8.32;74.57;91589.84;4964977;29;20017;-83
2024/04/25 09:34:05;;;;;;;5.72;3.53;;;;;;;8.23;72.96;91585.63;4965869;28;20020;-82
2024/04/25 09:36:30;;;;;;;5.88;3.60;;;;;;;8.75;72.19;91580.84;4938258;29;20024;-82
2024/04/25 09:39:00;;;;;;;5.13;3.22;;;;;;;8.97;65.74;91582.69;4912939;29;20009;-82
2024/04/25 09:41:27;;;;;;;7.15;3.40;;;;;;;9.46;69.82;91572.38;4935575;29;20009;-84
2024/04/25 09:43:54;;;;;;;8.35;2.85;;;;;;;9.55;63.49;91571.34;4934782;29;20084;-82
2024/04/25 09:46:34;;;;;;;5.70;3.17;;;;;;;9.03;68.11;91572.91;4908870;29;20342;-83
2024/04/25 09:49:05;;;;;;;5.05;2.88;;;;;;;8.77;59.20;91572.75;4934731;29;20034;-84
2024/04/25 09:51:46;;;;;;;4.53;2.70;;;;;;;8.72;65.29;91571.78;4908769;29;20017;-83
2024/04/25 09:54:18;;;;;;;5.28;3.28;;;;;;;8.27;63.08;91576.16;4908017;29;20010;-83
2024/04/25 09:56:49;;;;;;;6.57;3.22;;;;;;;8.22;68.29;91584.88;4934915;29;20495;-83
2024/04/25 09:59:57;;;;;;;9.10;2.90;;;;;;;8.29;67.24;91582.63;4935474;29;20010;-83
2024/04/25 10:02:24;;;;;;;5.20;3.03;;;;;;;8.25;62.89;91576.44;4931805;29;20014;-83
2024/04/25 10:04:49;;;;;;;4.43;2.65;;;;;;;8.41;64.52;91579.53;4908125;29;20097;-83
2024/04/25 10:07:19;;;;;;;5.15;3.17;;;;;;;8.81;66.00;91574.47;4935473;29;20021;-83
2024/04/25 10:10:02;;;;;;;5.15;2.95;;;;;;;8.66;62.31;91567.75;4935417;29;20010;-83
2024/04/25 10:12:27;;;;;;;4.22;2.35;;;;;;;8.88;66.21;91574.81;4934323;29;20014;-83
2024/04/25 10:15:03;;;;;;;4.28;2.58;;;;;;;8.63;63.60;91583.22;4934400;29;20415;-83
2024/04/25 10:17:32;;;;;;;5.57;3.22;;;;;;;8.14;65.33;91581.09;4905854;29;20014;-84
2024/04/25 10:20:03;;;;;;;3.47;2.30;;;;;;;8.32;63.83;91578.66;4905495;29;20600;-83
2024/04/25 10:22:29;;;;;;;2.97;1.92;;;;;;;8.21;63.45;91595.56;4909063;29;20010;-82
2024/04/25 10:25:00;;;;;;;4.10;2.42;;;;;;;7.85;61.37;91580.66;4907350;29;20017;-83
2024/04/25 10:27:27;;;;;;;7.10;3.17;;;;;;;7.77;65.45;91571.69;4933111;29;20010;-83
2024/04/25 10:30:24;;;;;;;4.72;2.60;;;;;;;7.76;72.17;91577.19;4934631;29;20003;-83
2024/04/25 10:32:50;;;;;;;6.10;3.05;;;;;;;7.66;68.20;91573.72;4934519;29;20112;-83
2024/04/25 10:35:15;;;;;;;5.88;2.70;;;;;;;7.53;68.91;91578.94;4936333;29;20348;-83
2024/04/25 10:37:41;;;;;;;3.80;2.25;;;;;;;7.57;68.25;91574.69;4936276;29;20021;-83
2024/04/25 10:40:07;;;;;;;6.03;3.08;;;;;;;7.66;66.51;91588.59;4951389;29;20016;-83
2024/04/25 10:43:07;;;;;;;5.60;3.15;;;;;;;7.61;66.87;91580.84;4966878;29;20384;-83
2024/04/25 10:45:51;;;;;;;4.30;2.10;;;;;;;7.53;64.29;91571.88;4901908;29;20495;-83
2024/04/25 10:48:17;;;;;;;4.05;2.33;;;;;;;7.28;63.05;91576.50;4966187;29;20363;-83
2024/04/25 10:50:48;;;;;;;3.55;2.13;;;;;;;7.36;62.27;91579.47;4967894;29;20005;-83
2024/04/25 10:53:14;;;;;;;4.57;2.08;;;;;;;7.45;59.01;91577.75;4967155;29;20010;-83
2024/04/25 10:55:40;;;;;;;5.25;2.38;;;;;;;7.43;65.08;91575.44;4967227;28;20021;-82
2024/04/25 10:58:13;;;;;;;3.25;1.98;;;;;;;7.38;61.39;91583.34;4968381;29;20013;-82
2024/04/25 11:00:46;;;;;;;3.85;2.38;;;;;;;7.16;62.33;91581.41;4966943;29;20005;-82
2024/04/25 11:03:11;;;;;;;11.65;3.20;;;;;;;7.27;61.69;91581.97;4967016;29;20025;-83
2024/04/25 11:05:40;;;;;;;3.13;1.70;;;;;;;7.15;59.85;91592.84;4965833;28;20087;-83
2024/04/25 11:08:06;;;;;;;5.03;2.90;;;;;;;7.11;62.01;91591.88;4965904;29;20012;-83
2024/04/25 11:10:35;;;;;;;4.53;2.67;;;;;;;7.45;60.98;91588.16;4967530;29;20399;-83
2024/04/25 11:13:00;;;;;;;4.25;2.53;;;;;;;7.59;63.50;91578.53;4966595;29;20005;-83
2024/04/25 11:15:26;;;;;;;4.45;2.40;;;;;;;7.80;61.18;91583.38;4966060;29;20025;-83
2024/04/25 11:17:52;;;;;;;4.15;2.40;;;;;;;8.18;60.99;91583.91;4938064;29;20080;-83
2024/04/25 11:20:20;;;;;;;4.75;2.53;;;;;;;8.06;59.02;91575.78;4963731;29;20013;-83
2024/04/25 11:22:46;;;;;;;4.25;2.38;;;;;;;8.20;61.26;91573.94;4939656;29;20005;-83
2024/04/25 11:25:23;;;;;;;6.13;2.05;;;;;;;8.34;57.08;91581.75;4915345;29;20009;-83
2024/04/25 11:27:50;;;;;;;4.15;2.30;;;;;;;8.71;53.44;91572.88;4966750;29;20017;-83
2024/04/25 11:30:24;;;;;;;3.72;2.10;;;;;;;9.50;55.05;91561.03;4964759;29;20017;-82
2024/04/25 11:32:49;;;;;;;3.97;2.00;;;;;;;9.82;48.75;91553.91;4939291;29;20028;-83
2024/04/25 11:35:54;;;;;;;3.20;1.88;;;;;;;9.82;50.64;91560.94;4964146;29;20009;-83
2024/04/25 11:38:19;;;;;;;2.60;1.75;;;;;;;10.05;51.99;91557.19;4964674;29;20039;-82
2024/04/25 11:40:46;;;;;;;3.30;1.83;;;;;;;10.13;47.04;91564.28;4965399;29;20014;-83
2024/04/25 11:43:16;;;;;;;4.25;2.15;;;;;;;10.32;49.42;91555.41;4965284;29;20016;-84
2024/04/25 11:45:44;;;;;;;4.15;2.10;;;;;;;10.22;45.67;91561.66;4965137;28;20010;-82
2024/04/25 11:48:12;;;;;;;3.80;2.00;;;;;;;10.39;47.60;91560.94;4965900;29;20061;-83